createdAt,value
2023-03-27T00:01:16.327Z,3.15
2023-03-27T00:03:43.882Z,3.05
2023-03-27T00:06:17.283Z,2.55
2023-03-27T00:08:51.332Z,2.88
2023-03-27T00:11:21.351Z,2.60
2023-03-27T00:13:51.368Z,3.00
2023-03-27T00:16:24.378Z,3.13
2023-03-27T00:18:52.942Z,2.95
2023-03-27T00:21:22.485Z,3.00
2023-03-27T00:23:49.877Z,2.85
2023-03-27T00:26:16.954Z,2.95
2023-03-27T00:28:44.298Z,2.95
2023-03-27T00:31:15.034Z,2.40
2023-03-27T00:33:42.806Z,3.05
2023-03-27T00:36:11.115Z,2.95
2023-03-27T00:38:39.946Z,3.00
2023-03-27T00:41:08.768Z,2.85
2023-03-27T00:43:43.698Z,2.80
2023-03-27T00:46:43.839Z,3.10
2023-03-27T00:49:17.120Z,3.30
2023-03-27T00:51:47.690Z,2.67
2023-03-27T00:54:26.721Z,3.45
2023-03-27T00:57:01.915Z,1.95
2023-03-27T00:59:39.058Z,2.25
2023-03-27T01:02:07.939Z,2.28
2023-03-27T01:04:38.604Z,2.20
2023-03-27T01:07:08.592Z,2.83
2023-03-27T01:09:35.732Z,1.27
2023-03-27T01:12:18.994Z,3.30
2023-03-27T01:14:59.207Z,2.53
2023-03-27T01:18:03.938Z,2.40
2023-03-27T01:21:18.886Z,1.35
2023-03-27T01:24:31.619Z,2.13
2023-03-27T01:27:54.635Z,2.22
2023-03-27T01:30:36.075Z,1.60
2023-03-27T01:33:32.751Z,1.73
2023-03-27T01:36:27.424Z,1.30
2023-03-27T01:39:11.095Z,3.42
2023-03-27T01:41:59.633Z,1.85
2023-03-27T01:44:43.717Z,1.42
2023-03-27T01:51:39.832Z,2.40
2023-03-27T01:54:27.670Z,2.22
2023-03-27T01:57:16.398Z,2.30
2023-03-27T01:59:51.220Z,3.28
2023-03-27T02:02:29.620Z,1.73
2023-03-27T02:05:19.574Z,2.55
2023-03-27T02:08:07.581Z,2.30
2023-03-27T02:10:46.028Z,2.67
2023-03-27T02:13:27.515Z,2.17
2023-03-27T02:15:59.474Z,2.13
2023-03-27T02:18:38.171Z,2.95
2023-03-27T02:21:06.300Z,1.92
2023-03-27T02:23:33.430Z,2.80
2023-03-27T02:26:01.786Z,2.10
2023-03-27T02:29:06.689Z,3.00
2023-03-27T02:32:10.338Z,3.00
2023-03-27T02:35:03.509Z,3.03
2023-03-27T02:40:39.870Z,2.80
2023-03-27T02:43:37.886Z,2.85
2023-03-27T02:46:34.417Z,2.08
2023-03-27T02:49:10.712Z,2.30
2023-03-27T02:51:54.640Z,3.30
2023-03-27T02:54:38.612Z,3.03
2023-03-27T02:57:15.182Z,2.80
2023-03-27T03:00:05.480Z,3.17
2023-03-27T03:02:38.134Z,3.47
2023-03-27T03:05:20.675Z,3.17
2023-03-27T03:07:49.551Z,2.88
2023-03-27T03:10:17.493Z,2.65
2023-03-27T03:12:44.875Z,2.20
2023-03-27T03:15:12.684Z,3.45
2023-03-27T03:17:41.040Z,3.50
2023-03-27T03:20:09.925Z,3.95
2023-03-27T03:22:40.140Z,4.00
2023-03-27T03:25:09.396Z,4.95
2023-03-27T03:27:37.640Z,3.70
2023-03-27T03:30:16.882Z,3.95
2023-03-27T03:33:02.954Z,4.07
2023-03-27T03:35:35.011Z,4.43
2023-03-27T03:38:08.381Z,3.92
2023-03-27T03:40:44.256Z,3.92
2023-03-27T03:43:11.944Z,3.97
2023-03-27T03:45:40.321Z,4.50
2023-03-27T03:48:07.447Z,4.22
2023-03-27T03:50:35.020Z,3.95
2023-03-27T03:53:02.140Z,3.33
2023-03-27T03:55:29.636Z,2.90
2023-03-27T03:57:56.973Z,2.95
2023-03-27T04:00:27.091Z,2.88
2023-03-27T04:02:57.114Z,2.72
2023-03-27T04:05:24.714Z,2.47
2023-03-27T04:07:54.124Z,2.30
2023-03-27T04:10:41.640Z,2.35
2023-03-27T04:13:18.121Z,2.38
2023-03-27T04:15:55.437Z,1.95
2023-03-27T04:18:35.617Z,2.00
2023-03-27T04:21:17.791Z,2.40
2023-03-27T04:23:48.300Z,2.85
2023-03-27T04:26:28.384Z,2.60
2023-03-27T04:29:14.470Z,3.28
2023-03-27T04:32:00.266Z,2.53
2023-03-27T04:34:42.962Z,2.13
2023-03-27T04:37:29.402Z,1.90
2023-03-27T04:40:22.630Z,2.50
2023-03-27T04:42:50.255Z,2.90
2023-03-27T04:45:23.379Z,3.10
2023-03-27T04:47:51.463Z,2.63
2023-03-27T04:50:20.058Z,3.72
2023-03-27T04:52:50.206Z,3.58
2023-03-27T04:55:19.797Z,3.90
2023-03-27T04:57:50.373Z,2.20
2023-03-27T05:00:19.759Z,2.70
2023-03-27T05:02:48.732Z,2.05
2023-03-27T05:05:23.196Z,2.20
2023-03-27T05:07:51.749Z,2.30
2023-03-27T05:10:22.646Z,2.40
2023-03-27T05:12:55.190Z,2.17
2023-03-27T05:15:24.065Z,2.38
2023-03-27T05:17:54.495Z,2.05
2023-03-27T05:20:25.170Z,2.50
2023-03-27T05:22:56.807Z,2.25
2023-03-27T05:25:26.844Z,2.47
2023-03-27T05:27:55.211Z,2.33
2023-03-27T05:30:29.681Z,2.15
2023-03-27T05:33:17.843Z,3.05
2023-03-27T05:35:48.485Z,2.47
2023-03-27T05:38:22.741Z,1.45
2023-03-27T05:41:04.463Z,2.65
2023-03-27T05:43:35.875Z,2.50
2023-03-27T05:46:04.291Z,1.92
2023-03-27T05:48:31.715Z,2.17
2023-03-27T05:51:02.233Z,2.33
2023-03-27T05:53:29.729Z,2.28
2023-03-27T05:56:19.408Z,2.30
2023-03-27T05:58:53.484Z,2.40
2023-03-27T06:01:30.728Z,2.00
2023-03-27T06:03:59.859Z,2.58
2023-03-27T06:06:51.510Z,2.63
2023-03-27T06:09:18.843Z,2.85
2023-03-27T06:12:03.713Z,2.13
2023-03-27T06:14:34.226Z,1.60
2023-03-27T06:17:20.168Z,1.98
2023-03-27T06:19:59.595Z,1.92
2023-03-27T06:25:02.262Z,2.88
2023-03-27T06:27:32.244Z,1.70
2023-03-27T06:29:59.409Z,1.75
2023-03-27T06:32:27.695Z,1.33
2023-03-27T06:34:56.288Z,1.60
2023-03-27T06:37:48.887Z,1.60
2023-03-27T06:40:24.366Z,1.75
2023-03-27T06:43:08.580Z,1.92
2023-03-27T06:45:49.924Z,1.88
2023-03-27T06:48:36.269Z,1.80
2023-03-27T06:51:05.870Z,1.70
2023-03-27T06:53:52.144Z,1.08
2023-03-27T07:04:20.901Z,1.30
2023-03-27T07:07:04.534Z,1.58
2023-03-27T07:11:10.707Z,0.95
2023-03-27T07:14:54.015Z,0.68
2023-03-27T07:17:37.893Z,0.65
2023-03-27T07:27:53.641Z,1.52
2023-03-27T07:30:39.768Z,1.80
2023-03-27T07:37:55.821Z,1.25
2023-03-27T08:01:06.298Z,1.70
2023-03-27T08:22:17.288Z,0.80
2023-03-27T08:29:08.994Z,1.15
2023-03-27T08:32:23.051Z,1.45
2023-03-27T08:52:36.964Z,1.23
2023-03-27T08:57:52.756Z,1.48
2023-03-27T09:00:43.131Z,1.38
2023-03-27T09:05:36.996Z,1.23
2023-03-27T09:08:42.615Z,0.98
2023-03-27T09:12:24.135Z,1.35
2023-03-27T09:25:39.997Z,1.27
2023-03-27T09:29:24.706Z,1.30
2023-03-27T09:32:52.102Z,1.17
2023-03-27T09:46:40.508Z,1.00
2023-03-27T10:03:48.811Z,1.60
2023-03-27T10:06:31.504Z,1.27
2023-03-27T10:15:02.394Z,1.17
2023-03-27T10:42:21.246Z,1.20
2023-03-27T10:49:04.056Z,1.30
2023-03-27T10:52:31.274Z,0.98
2023-03-27T10:56:16.806Z,0.73
2023-03-27T10:59:48.366Z,1.10
2023-03-27T11:07:51.881Z,1.33
2023-03-27T11:10:44.047Z,0.98
2023-03-27T11:13:32.359Z,1.02
2023-03-27T11:16:39.677Z,1.17
2023-03-27T11:19:45.456Z,0.85
2023-03-27T11:23:40.165Z,0.82
2023-03-27T11:32:01.675Z,1.02
2023-03-27T11:35:28.139Z,0.95
2023-03-27T11:42:00.145Z,1.30
2023-03-27T11:44:32.120Z,1.25
2023-03-27T11:47:18.908Z,1.33
2023-03-27T11:50:06.592Z,0.70
2023-03-27T11:53:10.066Z,0.82
2023-03-27T11:57:20.193Z,1.17
2023-03-27T12:10:32.135Z,2.33
2023-03-27T12:14:05.456Z,1.33
2023-03-27T12:17:33.882Z,0.80
2023-03-27T12:20:52.777Z,1.45
2023-03-27T12:24:01.575Z,1.40
2023-03-27T12:27:27.624Z,1.08
2023-03-27T12:30:24.855Z,0.80
2023-03-27T12:33:00.346Z,1.23
2023-03-27T12:35:35.902Z,1.27
2023-03-27T12:38:12.452Z,1.35
2023-03-27T12:41:13.094Z,1.02
2023-03-27T12:44:03.621Z,0.98
2023-03-27T12:46:41.335Z,1.40
2023-03-27T12:49:12.285Z,0.88
2023-03-27T12:52:00.327Z,1.23
2023-03-27T12:59:00.840Z,1.08
2023-03-27T13:02:01.405Z,1.00
2023-03-27T13:05:02.196Z,0.50
2023-03-27T13:07:52.772Z,0.75
2023-03-27T13:11:12.378Z,0.95
2023-03-27T13:14:21.419Z,1.20
2023-03-27T13:17:15.144Z,0.90
2023-03-27T13:19:56.870Z,0.90
2023-03-27T13:22:43.949Z,0.90
2023-03-27T13:25:48.922Z,1.05
2023-03-27T13:28:37.909Z,1.17
2023-03-27T13:31:49.729Z,1.00
2023-03-27T13:35:03.865Z,1.05
2023-03-27T13:37:36.414Z,0.80
2023-03-27T13:40:27.372Z,1.60
2023-03-27T13:43:26.780Z,1.50
2023-03-27T13:55:12.807Z,1.00
2023-03-27T14:02:10.082Z,1.17
2023-03-27T14:05:21.925Z,1.00
2023-03-27T14:08:19.727Z,1.23
2023-03-27T14:11:41.462Z,1.23
2023-03-27T14:15:14.511Z,1.48
2023-03-27T14:18:22.786Z,1.80
2023-03-27T14:21:06.092Z,1.50
2023-03-27T14:24:24.537Z,1.75
2023-03-27T14:26:57.727Z,1.10
2023-03-27T14:29:28.947Z,1.08
2023-03-27T14:32:04.609Z,1.20
2023-03-27T14:34:43.811Z,1.20
2023-03-27T14:37:39.536Z,1.08
2023-03-27T14:40:42.203Z,1.50
2023-03-27T14:43:14.421Z,1.42
2023-03-27T14:45:44.378Z,1.42
2023-03-27T14:48:38.932Z,1.17
2023-03-27T14:51:21.061Z,1.73
2023-03-27T14:53:52.384Z,2.65
2023-03-27T14:57:09.266Z,2.50
2023-03-27T14:59:46.580Z,2.13
2023-03-27T15:07:48.908Z,1.90
2023-03-27T15:10:32.773Z,1.17
2023-03-27T15:13:19.101Z,1.67
2023-03-27T15:15:57.580Z,1.02
2023-03-27T15:18:58.926Z,1.15
2023-03-27T15:21:47.034Z,1.23
2023-03-27T15:24:31.742Z,1.10
2023-03-27T15:27:02.598Z,1.23
2023-03-27T15:29:42.804Z,0.70
2023-03-27T15:32:19.097Z,0.90
2023-03-27T15:35:03.420Z,0.70
2023-03-27T15:37:31.902Z,0.77
2023-03-27T15:40:42.978Z,0.80
2023-03-27T15:43:13.550Z,1.00
2023-03-27T15:46:13.848Z,1.00
2023-03-27T15:48:55.440Z,0.90
2023-03-27T15:51:23.253Z,1.00
2023-03-27T15:53:55.734Z,0.77
2023-03-27T15:56:42.442Z,1.38
2023-03-27T15:59:16.102Z,1.17
2023-03-27T16:01:55.204Z,0.90
2023-03-27T16:04:33.912Z,1.08
2023-03-27T16:07:21.299Z,0.93
2023-03-27T16:09:57.720Z,1.10
2023-03-27T16:12:33.392Z,0.85
2023-03-27T16:19:58.284Z,1.83
2023-03-27T16:22:30.571Z,1.30
2023-03-27T16:24:59.705Z,1.30
2023-03-27T16:27:37.140Z,1.00
2023-03-27T16:30:45.814Z,1.80
2023-03-27T16:33:18.053Z,1.42
2023-03-27T16:35:47.684Z,1.73
2023-03-27T16:38:16.655Z,1.88
2023-03-27T16:40:44.950Z,1.50
2023-03-27T16:43:12.702Z,2.15
2023-03-27T16:52:33.479Z,1.55
2023-03-27T16:55:07.306Z,1.35
2023-03-27T16:57:38.819Z,1.92
2023-03-27T17:01:09.724Z,2.92
2023-03-27T17:03:38.370Z,1.55
2023-03-27T17:06:15.260Z,1.30
2023-03-27T17:08:43.260Z,1.50
2023-03-27T17:11:13.375Z,1.50
2023-03-27T17:13:43.105Z,1.42
2023-03-27T17:16:17.206Z,1.00
2023-03-27T17:18:44.402Z,0.52
2023-03-27T17:21:14.741Z,0.73
2023-03-27T17:23:43.800Z,1.20
2023-03-27T17:26:15.565Z,1.08
2023-03-27T17:55:07.633Z,1.05
2023-03-27T17:57:39.430Z,1.52
2023-03-27T18:00:12.473Z,1.58
2023-03-27T18:02:40.633Z,1.80
2023-03-27T18:05:09.097Z,1.80
2023-03-27T18:07:36.569Z,2.20
2023-03-27T18:10:04.901Z,2.20
2023-03-27T18:12:35.326Z,3.10
2023-03-27T18:15:02.571Z,2.13
2023-03-27T18:17:34.732Z,1.67
2023-03-27T18:20:27.661Z,2.00
2023-03-27T18:22:56.628Z,1.70
2023-03-27T18:25:24.347Z,1.90
2023-03-27T18:27:53.187Z,1.48
2023-03-27T18:30:21.216Z,1.65
2023-03-27T18:32:49.102Z,1.85
2023-03-27T18:35:20.148Z,1.38
2023-03-27T18:37:47.562Z,1.58
2023-03-27T18:40:18.397Z,1.52
2023-03-27T18:43:28.898Z,1.50
2023-03-27T18:46:08.063Z,1.80
2023-03-27T18:48:35.799Z,1.55
2023-03-27T18:51:06.328Z,1.60
2023-03-27T18:53:59.472Z,1.58
2023-03-27T19:00:51.119Z,1.40
2023-03-27T19:03:44.667Z,1.40
2023-03-27T19:06:13.443Z,1.40
2023-03-27T19:08:42.398Z,1.40
2023-03-27T19:11:30.363Z,1.95
2023-03-27T19:14:08.049Z,1.15
2023-03-27T19:16:54.957Z,1.33
2023-03-27T19:19:46.599Z,1.40
2023-03-27T19:22:15.470Z,1.73
2023-03-27T19:24:57.182Z,1.27
2023-03-27T19:27:25.232Z,1.60
2023-03-27T19:29:54.417Z,1.73
2023-03-27T19:32:24.169Z,1.15
2023-03-27T19:34:51.592Z,0.98
2023-03-27T19:37:44.138Z,1.45
2023-03-27T19:40:13.430Z,1.20
2023-03-27T19:42:42.176Z,1.17
2023-03-27T19:45:10.147Z,2.00
2023-03-27T19:47:37.968Z,1.63
2023-03-27T19:50:38.962Z,2.15
2023-03-27T19:53:11.601Z,0.93
2023-03-27T19:55:42.473Z,2.20
2023-03-27T20:01:28.310Z,1.75
2023-03-27T20:03:57.491Z,1.33
2023-03-27T20:07:42.912Z,1.92
2023-03-27T20:10:13.553Z,1.67
2023-03-27T20:12:43.673Z,2.08
2023-03-27T20:15:12.743Z,1.85
2023-03-27T20:17:43.192Z,1.52
2023-03-27T20:20:25.529Z,1.40
2023-03-27T20:26:42.888Z,1.63
2023-03-27T20:29:28.200Z,1.90
2023-03-27T20:31:55.890Z,1.13
2023-03-27T20:34:24.453Z,1.73
2023-03-27T20:36:53.588Z,1.05
2023-03-27T20:39:54.564Z,1.30
2023-03-27T20:42:29.111Z,1.60
2023-03-27T20:46:19.702Z,1.98
2023-03-27T20:51:40.061Z,0.95
2023-03-27T20:54:10.381Z,0.85
2023-03-27T21:02:51.620Z,0.73
2023-03-27T21:05:20.952Z,0.70
2023-03-27T21:07:59.883Z,1.20
2023-03-27T21:10:27.416Z,0.57
2023-03-27T21:12:57.613Z,1.20
2023-03-27T21:15:27.140Z,1.27
2023-03-27T21:17:56.412Z,1.55
2023-03-27T21:20:27.873Z,1.20
2023-03-27T21:22:55.476Z,1.80
2023-03-27T21:25:23.153Z,1.80
2023-03-27T21:27:57.355Z,1.92
2023-03-27T21:30:24.725Z,2.28
2023-03-27T21:33:12.068Z,2.08
2023-03-27T21:35:44.048Z,1.50
2023-03-27T21:38:44.345Z,2.10
2023-03-27T21:43:04.666Z,2.85
2023-03-27T21:50:28.702Z,1.27
2023-03-27T21:53:21.779Z,1.70
2023-03-27T21:55:52.607Z,1.52
2023-03-27T21:58:23.078Z,1.20
2023-03-27T22:06:12.449Z,1.30
2023-03-27T22:08:45.845Z,1.27
2023-03-27T22:11:13.149Z,1.60
2023-03-27T22:13:41.480Z,1.55
2023-03-27T22:16:17.370Z,0.85
2023-03-27T22:18:45.131Z,1.63
2023-03-27T22:21:52.517Z,1.67
2023-03-27T22:24:52.477Z,1.80
2023-03-27T22:31:41.968Z,1.50
2023-03-27T22:34:09.230Z,1.10
2023-03-27T22:36:46.901Z,1.50
2023-03-27T22:39:14.511Z,1.40
2023-03-27T22:41:41.484Z,1.45
2023-03-27T22:44:08.659Z,1.20
2023-03-27T22:46:38.113Z,1.77
2023-03-27T22:49:05.628Z,1.58
2023-03-27T22:51:32.762Z,1.10
2023-03-27T22:53:59.941Z,1.15
2023-03-27T22:56:27.202Z,1.85
2023-03-27T22:58:54.519Z,1.60
2023-03-27T23:02:36.523Z,1.38
2023-03-27T23:05:29.671Z,1.67
2023-03-27T23:07:57.077Z,0.90
2023-03-27T23:10:24.811Z,1.10
2023-03-27T23:12:51.875Z,1.02
2023-03-27T23:19:45.845Z,1.35
2023-03-27T23:22:21.361Z,1.05
2023-03-27T23:24:50.969Z,1.70
2023-03-27T23:27:18.209Z,1.20
2023-03-27T23:29:45.890Z,1.60
2023-03-27T23:32:13.620Z,1.55
2023-03-27T23:34:40.883Z,1.30
2023-03-27T23:37:08.001Z,2.03
2023-03-27T23:39:35.211Z,1.48
2023-03-27T23:42:02.387Z,1.50
2023-03-27T23:49:49.507Z,0.95
2023-03-27T23:52:16.755Z,1.08
2023-03-27T23:54:43.756Z,1.17
